Time;durP1;ratioP1;P1;durP2;ratioP2;P2;SDS_P1;SDS_P2;PMS_P1;PMS_P2;Temp;Humidity;BMP_temperature;BMP_pressure;BME280_temperature;BME280_humidity;BME280_pressure;Samples;Min_cycle;Max_cycle;Signal;HPM_P1;HPM_P2
2022/09/11 00:00:43;;;;;;;0.93;0.90;;;12.30;99.90;;;;;;4845607;29;20392;-82
2022/09/11 00:03:49;;;;;;;2.10;0.98;;;12.30;99.90;;;;;;4833218;29;20511;-82
2022/09/11 00:06:42;;;;;;;1.83;0.90;;;12.30;99.90;;;;;;4821512;29;20053;-82
2022/09/11 00:09:10;;;;;;;1.92;1.80;;;12.40;99.90;;;;;;4812222;29;20053;-81
2022/09/11 00:11:55;;;;;;;2.60;0.82;;;12.40;99.90;;;;;;4784593;29;20621;-82
2022/09/11 00:26:14;;;;;;;1.08;1.00;;;12.30;99.90;;;;;;4655314;23;20052;-86
2022/09/11 00:30:03;;;;;;;1.67;0.63;;;12.20;99.90;;;;;;4789821;29;20154;-84
2022/09/11 00:33:21;;;;;;;;;;;;;;;;;;;;;
2022/09/11 00:38:10;;;;;;;0.70;0.70;;;12.30;99.90;;;;;;4738954;30;20052;-85
2022/09/11 00:41:44;;;;;;;1.25;1.15;;;12.20;99.90;;;;;;4714413;30;20780;-84
2022/09/11 00:45:57;;;;;;;4.40;1.17;;;12.20;99.90;;;;;;4708226;30;20148;-85
2022/09/11 00:48:36;;;;;;;2.35;0.90;;;12.30;99.90;;;;;;4711600;30;20057;-84
2022/09/11 00:52:07;;;;;;;0.95;0.95;;;12.40;99.90;;;;;;4723665;30;20053;-85
2022/09/11 00:55:46;;;;;;;;;;;;;;;;;;;;;
2022/09/11 00:59:20;;;;;;;2.45;1.58;;;12.30;99.90;;;;;;4855673;29;20400;-83
2022/09/11 01:02:37;;;;;;;1.25;1.00;;;12.30;99.90;;;;;;4850853;29;20053;-83
2022/09/11 01:06:08;;;;;;;;;;;;;;;;;;;;;
2022/09/11 01:39:42;;;;;;;0.80;0.80;;;12.40;99.90;;;;;;3702700;24;20336;-84
2022/09/11 01:50:19;;;;;;;1.10;1.00;;;12.40;99.90;;;;;;5645627;24;20054;-86
2022/09/11 02:01:39;;;;;;;1.48;1.38;;;12.40;99.90;;;;;;5689044;23;19920;-82
2022/09/11 02:33:49;;;;;;;0.82;0.82;;;12.30;99.90;;;;;;4811199;29;20074;-83
2022/09/11 03:12:31;;;;;;;1.63;0.90;;;11.70;99.90;;;;;;4711339;30;20185;-83
2022/09/11 03:15:01;;;;;;;3.38;1.50;;;12.20;99.90;;;;;;4743642;30;20047;-82
2022/09/11 03:17:34;;;;;;;0.90;0.90;;;12.20;99.90;;;;;;4765037;29;20050;-82
2022/09/11 03:20:38;;;;;;;2.28;0.80;;;12.20;99.90;;;;;;4796658;29;20099;-83
2022/09/11 03:24:31;;;;;;;1.15;1.05;;;12.10;99.90;;;;;;4812974;29;20448;-81
2022/09/11 03:31:59;;;;;;;3.45;1.17;;;12.00;99.90;;;;;;4803195;29;20515;-83
2022/09/11 03:38:52;;;;;;;1.90;1.50;;;12.10;99.90;;;;;;4727196;30;20048;-81
2022/09/11 03:41:43;;;;;;;1.45;1.35;;;12.20;99.90;;;;;;4760071;30;20055;-82
2022/09/11 03:44:51;;;;;;;1.85;1.15;;;12.10;99.90;;;;;;4757684;29;20094;-82
2022/09/11 03:47:24;;;;;;;2.70;1.30;;;12.10;99.90;;;;;;4754677;30;20048;-81
2022/09/11 03:49:54;;;;;;;1.20;1.10;;;12.10;99.90;;;;;;4741981;30;20051;-81
2022/09/11 03:53:14;;;;;;;1.77;1.13;;;12.10;99.90;;;;;;4753959;30;20064;-81
2022/09/11 03:59:42;;;;;;;1.33;1.23;;;12.10;99.90;;;;;;4768327;30;20383;-81
2022/09/11 04:02:14;;;;;;;0.90;0.90;;;12.10;99.90;;;;;;4771196;30;20086;-81
2022/09/11 04:05:26;;;;;;;2.95;1.10;;;12.10;99.90;;;;;;4782358;23;20055;-82
2022/09/11 04:08:16;;;;;;;1.40;0.95;;;12.10;99.90;;;;;;4844117;29;20408;-82
2022/09/11 04:11:38;;;;;;;;;;;;;;;;;;;;;
2022/09/11 06:06:22;;;;;;;1.77;1.60;;;12.60;99.90;;;;;;4820496;29;20448;-83
2022/09/11 06:16:33;;;;;;;3.92;1.10;;;12.60;99.90;;;;;;4858077;29;20046;-87
2022/09/11 06:19:44;;;;;;;3.67;1.33;;;12.60;99.90;;;;;;4841619;29;20056;-84
2022/09/11 06:22:41;;;;;;;2.10;1.75;;;12.60;99.90;;;;;;4831033;29;20061;-84
2022/09/11 06:26:25;;;;;;;1.00;1.00;;;12.60;99.90;;;;;;4810666;29;20046;-84
2022/09/11 06:33:00;;;;;;;1.88;1.30;;;12.60;99.90;;;;;;4763360;29;20078;-85
2022/09/11 06:36:39;;;;;;;;;;;12.80;99.90;;;;;;4783534;29;20058;-85
2022/09/11 06:40:27;;;;;;;1.33;1.02;;;12.70;99.90;;;;;;4765417;30;19925;-84
2022/09/11 06:43:10;;;;;;;1.73;1.52;;;12.70;99.90;;;;;;4753060;30;20059;-82
2022/09/11 06:45:47;;;;;;;1.13;1.10;;;12.80;99.90;;;;;;4764566;30;20051;-84
2022/09/11 06:49:18;;;;;;;1.35;1.25;;;12.80;99.90;;;;;;4725141;30;20110;-84
2022/09/11 06:52:41;;;;;;;2.92;1.38;;;12.80;99.90;;;;;;4774165;29;20063;-84
2022/09/11 06:56:07;;;;;;;2.67;1.25;;;12.80;99.90;;;;;;4861153;29;20068;-83
2022/09/11 06:59:04;;;;;;;3.85;1.35;;;12.90;99.90;;;;;;4833052;29;20069;-83
2022/09/11 07:01:42;;;;;;;1.25;1.15;;;12.80;99.90;;;;;;4844330;29;20069;-83
2022/09/11 07:04:22;;;;;;;2.35;1.30;;;12.80;99.90;;;;;;4857195;29;20045;-84
2022/09/11 07:07:10;;;;;;;4.28;1.95;;;12.80;99.90;;;;;;4854415;29;20060;-85
2022/09/11 07:14:49;;;;;;;3.85;1.60;;;12.80;99.90;;;;;;4861834;29;20064;-86
2022/09/11 07:18:20;;;;;;;1.10;1.00;;;12.80;99.90;;;;;;4749857;29;20076;-82
2022/09/11 07:21:21;;;;;;;3.13;1.83;;;12.90;99.90;;;;;;4768472;29;20067;-84
2022/09/11 07:24:46;;;;;;;4.20;1.80;;;12.80;99.90;;;;;;4724041;30;20049;-85
2022/09/11 07:28:22;;;;;;;6.40;1.77;;;12.90;99.90;;;;;;4714831;30;20060;-84
2022/09/11 07:31:37;;;;;;;3.42;1.48;;;12.80;99.90;;;;;;4711248;30;20057;-83
2022/09/11 07:34:10;;;;;;;1.50;1.40;;;12.90;99.90;;;;;;4715643;30;20041;-82
2022/09/11 07:37:52;;;;;;;1.75;1.65;;;12.80;99.90;;;;;;4714784;30;20052;-82
2022/09/11 07:41:20;;;;;;;1.73;1.63;;;12.70;99.90;;;;;;4719314;30;20183;-83
2022/09/11 07:44:32;;;;;;;2.20;1.95;;;12.80;99.90;;;;;;4703234;30;20064;-83
2022/09/11 07:47:33;;;;;;;1.48;1.38;;;13.00;99.90;;;;;;4730527;30;20053;-82
2022/09/11 07:50:07;;;;;;;;;;;12.90;99.90;;;;;;4741814;29;20047;-82
2022/09/11 07:52:58;;;;;;;1.95;1.80;;;12.80;99.90;;;;;;4754554;30;20356;-82
2022/09/11 07:55:26;;;;;;;2.92;2.65;;;13.00;99.90;;;;;;4797229;29;20051;-82
2022/09/11 07:58:07;;;;;;;7.25;1.90;;;13.10;99.90;;;;;;4758927;29;20051;-82
2022/09/11 08:02:17;;;;;;;1.77;1.67;;;13.10;99.90;;;;;;4787077;29;20051;-82
2022/09/11 08:19:41;;;;;;;3.75;2.10;;;13.20;99.90;;;;;;4764712;29;20620;-82
2022/09/11 08:23:03;;;;;;;3.55;3.08;;;13.20;99.90;;;;;;4690865;30;20102;-83
2022/09/11 08:26:59;;;;;;;;;;;;;;;;;;;;;
2022/09/11 08:36:13;;;;;;;3.60;2.17;;;13.30;99.90;;;;;;4647820;30;20054;-84
2022/09/11 08:39:48;;;;;;;2.45;2.22;;;13.30;99.90;;;;;;4644583;30;20062;-84
2022/09/11 08:43:33;;;;;;;8.35;2.35;;;13.30;99.90;;;;;;4643823;30;20483;-83
2022/09/11 09:23:02;;;;;;;3.13;2.85;;;14.10;99.90;;;;;;4674347;30;20052;-83
2022/09/11 09:28:01;;;;;;;7.10;2.78;;;14.20;99.90;;;;;;4647102;30;20125;-87
2022/09/11 09:34:58;;;;;;;3.70;3.30;;;14.20;99.90;;;;;;1245051;27;20499;-84
2022/09/11 09:39:16;;;;;;;6.78;2.47;;;14.10;99.90;;;;;;4743820;30;20066;-83
2022/09/11 09:42:07;;;;;;;5.50;2.00;;;14.00;99.90;;;;;;4793502;29;20060;-84
2022/09/11 09:52:43;;;;;;;4.68;3.05;;;13.90;99.90;;;;;;4776667;29;20632;-87
2022/09/11 09:56:36;;;;;;;4.13;2.80;;;13.80;99.90;;;;;;4795345;29;20046;-83
2022/09/11 10:00:08;;;;;;;3.30;2.80;;;13.50;99.90;;;;;;4804760;29;20050;-85
2022/09/11 10:03:20;;;;;;;6.53;4.15;;;13.50;99.90;;;;;;4740605;30;20044;-81
2022/09/11 10:05:59;;;;;;;4.35;3.53;;;13.50;99.90;;;;;;4728644;30;20044;-83
2022/09/11 10:09:13;;;;;;;4.10;3.03;;;13.50;99.90;;;;;;4752445;29;20460;-82
2022/09/11 10:12:56;;;;;;;;;;;;;;;;;;;;;
2022/09/11 10:19:56;;;;;;;4.55;3.67;;;13.60;99.90;;;;;;4782825;29;20066;-82
2022/09/11 10:34:06;;;;;;;4.72;3.63;;;13.50;99.90;;;;;;4814123;29;20506;-82
2022/09/11 10:37:50;;;;;;;5.85;3.78;;;13.60;99.90;;;;;;4731997;30;20048;-84
2022/09/11 10:52:36;;;;;;;4.32;3.33;;;13.90;99.90;;;;;;4743774;30;20561;-83
2022/09/11 11:16:35;;;;;;;4.53;4.10;;;14.10;99.90;;;;;;4870564;29;20047;-84
2022/09/11 11:19:27;;;;;;;4.22;3.80;;;14.30;99.90;;;;;;4859501;29;20802;-86
2022/09/11 11:26:03;;;;;;;6.43;5.82;;;14.70;99.90;;;;;;5686226;24;20054;-85
2022/09/11 11:46:56;;;;;;;;;;;;;;;;;;;;;
2022/09/11 11:51:19;;;;;;;;;;;;;;;;;;;;;
2022/09/11 11:55:16;;;;;;;3.85;3.17;;;15.40;99.90;;;;;;4816933;29;20049;-86
2022/09/11 12:05:58;;;;;;;2.40;2.20;;;15.70;99.90;;;;;;5562083;23;20073;-87
2022/09/11 12:16:43;;;;;;;3.42;2.72;;;15.50;99.90;;;;;;4819224;29;20050;-83
2022/09/11 12:26:16;;;;;;;2.13;1.92;;;15.10;99.90;;;;;;4933891;23;20032;31
2022/09/11 12:52:28;;;;;;;3.30;2.60;;;16.20;99.90;;;;;;4772661;29;20047;-85
2022/09/11 13:05:05;;;;;;;2.53;2.30;;;15.70;99.90;;;;;;4981467;24;20065;-85
2022/09/11 13:31:58;;;;;;;;;;;;;;;;;;;;;
2022/09/11 13:35:00;;;;;;;2.05;1.67;;;16.00;99.90;;;;;;4846716;29;20056;-84
2022/09/11 13:38:38;;;;;;;2.22;2.05;;;15.80;99.90;;;;;;4823362;24;20416;-84
2022/09/11 13:43:35;;;;;;;2.00;1.90;;;15.80;99.90;;;;;;4765927;30;20402;-87
2022/09/11 13:49:59;;;;;;;2.03;1.92;;;15.80;99.90;;;;;;4884546;24;20495;-84
2022/09/11 13:52:39;;;;;;;1.42;1.33;;;15.90;99.90;;;;;;4831429;29;20049;-82
2022/09/11 13:55:33;;;;;;;1.50;1.33;;;16.10;99.90;;;;;;4844257;29;20056;-83
2022/09/11 14:03:00;;;;;;;1.67;1.48;;;16.20;99.90;;;;;;4786652;29;20398;-85
2022/09/11 14:05:31;;;;;;;1.80;1.70;;;16.40;99.90;;;;;;4832802;29;20055;-83
2022/09/11 14:12:27;;;;;;;1.52;1.42;;;16.20;99.90;;;;;;4849692;29;20064;-83
2022/09/11 14:15:29;;;;;;;1.98;1.55;;;16.00;99.90;;;;;;4810141;29;20471;-83
2022/09/11 14:18:58;;;;;;;1.52;1.42;;;15.80;99.90;;;;;;4824112;29;20198;-83
2022/09/11 14:22:29;;;;;;;2.00;1.90;;;15.80;99.90;;;;;;4795819;29;20077;-83
2022/09/11 14:25:20;;;;;;;2.22;1.90;;;15.60;99.90;;;;;;4838711;29;20484;-82
2022/09/11 14:27:58;;;;;;;2.20;2.00;;;15.80;99.90;;;;;;4811466;29;20063;-82
2022/09/11 14:30:36;;;;;;;1.88;1.77;;;15.90;99.90;;;;;;4801809;29;20864;-83
2022/09/11 14:33:21;;;;;;;5.07;2.30;;;15.90;99.90;;;;;;4825165;29;20191;-83
2022/09/11 14:35:59;;;;;;;2.80;2.28;;;16.00;99.90;;;;;;4822771;29;20053;-83
2022/09/11 14:38:39;;;;;;;2.08;1.98;;;16.30;99.90;;;;;;4816913;29;20054;-83
2022/09/11 14:41:22;;;;;;;2.53;2.33;;;16.80;99.90;;;;;;4822103;29;20049;-82
2022/09/11 14:43:52;;;;;;;2.33;1.80;;;17.00;99.90;;;;;;4810932;29;20059;-82
2022/09/11 14:46:25;;;;;;;1.77;1.67;;;17.10;99.90;;;;;;4865780;29;20061;-84
2022/09/11 14:48:56;;;;;;;3.67;2.47;;;16.90;99.90;;;;;;4845521;29;20404;-82
2022/09/11 14:51:43;;;;;;;2.17;1.98;;;16.90;99.90;;;;;;4838771;29;20519;-85
2022/09/11 14:55:42;;;;;;;3.33;2.30;;;16.70;99.90;;;;;;4920443;24;20078;-84
2022/09/11 14:58:43;;;;;;;2.30;2.13;;;16.30;99.90;;;;;;4845894;29;20055;-83
2022/09/11 15:05:54;;;;;;;7.45;2.55;;;16.10;99.90;;;;;;4977300;23;20049;-85
2022/09/11 15:08:33;;;;;;;2.08;1.92;;;16.10;99.90;;;;;;4839053;29;20057;-83
2022/09/11 15:14:26;;;;;;;5.13;3.45;;;16.30;99.90;;;;;;4832844;29;20870;-82
2022/09/11 15:17:24;;;;;;;2.30;2.05;;;16.20;99.90;;;;;;4847885;29;20053;-82
2022/09/11 15:20:07;;;;;;;2.42;2.22;;;16.40;99.90;;;;;;4853143;29;20713;-82
2022/09/11 15:22:38;;;;;;;7.40;2.28;;;16.50;99.90;;;;;;4876499;29;20053;-82
2022/09/11 15:25:07;;;;;;;9.50;2.83;;;16.40;99.90;;;;;;4844935;29;20048;-83
2022/09/11 15:27:47;;;;;;;2.15;1.85;;;16.30;99.90;;;;;;4865055;29;20044;-83
2022/09/11 15:30:26;;;;;;;3.17;2.20;;;16.30;99.90;;;;;;4849617;29;20060;-83
2022/09/11 15:43:54;;;;;;;2.33;2.13;;;16.30;99.90;;;;;;5649900;23;21185;-86
2022/09/11 16:47:08;;;;;;;2.30;2.10;;;14.60;99.90;;;;;;4863580;27;20049;-84
2022/09/11 16:49:39;;;;;;;2.75;2.50;;;14.60;99.90;;;;;;4858076;29;20519;-82
2022/09/11 16:52:34;;;;;;;2.92;2.72;;;14.60;99.90;;;;;;4863173;29;20060;-81
2022/09/11 16:55:10;;;;;;;2.05;1.95;;;14.50;99.90;;;;;;4844384;29;20399;-82
2022/09/11 16:57:39;;;;;;;2.72;2.53;;;14.60;99.90;;;;;;4814454;29;20053;-82
2022/09/11 17:00:13;;;;;;;2.42;2.22;;;14.70;99.90;;;;;;4829053;29;20399;-82
2022/09/11 17:02:41;;;;;;;1.95;1.85;;;14.90;99.90;;;;;;4828322;29;20053;-82
2022/09/11 17:16:34;;;;;;;2.90;2.60;;;14.80;99.90;;;;;;4690134;23;20057;-82
2022/09/11 17:19:03;;;;;;;2.67;2.47;;;14.70;99.90;;;;;;4862658;29;20052;-83
2022/09/11 17:21:36;;;;;;;3.00;2.80;;;14.70;99.90;;;;;;4901417;29;20044;-82
2022/09/11 17:24:05;;;;;;;3.88;3.58;;;14.60;99.90;;;;;;4880253;29;20049;-83
2022/09/11 17:26:33;;;;;;;3.30;3.00;;;14.60;99.90;;;;;;4877849;29;20056;-82
2022/09/11 17:29:04;;;;;;;3.22;2.80;;;14.60;99.90;;;;;;4897249;29;20040;-82
2022/09/11 17:31:31;;;;;;;2.50;2.30;;;14.50;99.90;;;;;;4892946;29;20073;-82
2022/09/11 17:33:59;;;;;;;2.53;2.35;;;14.50;99.90;;;;;;4847353;29;20056;-83
2022/09/11 17:36:27;;;;;;;3.05;2.75;;;14.40;99.90;;;;;;4837100;29;20054;-83
2022/09/11 17:38:58;;;;;;;2.70;2.50;;;14.40;99.90;;;;;;4836179;29;20050;-81
2022/09/11 17:41:26;;;;;;;2.60;2.38;;;14.40;99.90;;;;;;4820817;29;20057;-82
2022/09/11 17:43:54;;;;;;;2.40;2.20;;;14.30;99.90;;;;;;4828767;29;20791;-82
2022/09/11 17:46:37;;;;;;;2.72;2.53;;;14.30;99.90;;;;;;4829086;29;20065;-82
2022/09/11 17:49:05;;;;;;;2.78;2.58;;;14.20;99.90;;;;;;4822525;29;20046;-81
2022/09/11 17:51:33;;;;;;;2.22;2.00;;;14.20;99.90;;;;;;4810635;29;20186;-81
2022/09/11 17:54:00;;;;;;;2.85;2.65;;;14.20;99.90;;;;;;4825766;29;20056;-81
2022/09/11 17:56:29;;;;;;;2.75;2.53;;;14.20;99.90;;;;;;4824415;29;20046;-82
2022/09/11 17:58:59;;;;;;;2.40;2.30;;;14.10;99.90;;;;;;4801936;29;20058;-81
2022/09/11 18:01:29;;;;;;;2.50;2.13;;;14.10;99.90;;;;;;4856580;29;20050;-82
2022/09/11 18:03:59;;;;;;;2.25;2.13;;;14.00;99.90;;;;;;4836133;29;20056;-81
2022/09/11 18:06:31;;;;;;;2.08;1.95;;;14.00;99.90;;;;;;4805706;29;20068;-81
2022/09/11 18:09:14;;;;;;;3.53;1.65;;;13.90;99.90;;;;;;4840991;29;20049;-81
2022/09/11 18:11:44;;;;;;;2.08;1.83;;;13.70;99.90;;;;;;4856890;29;20057;-81
2022/09/11 18:14:12;;;;;;;2.55;2.17;;;13.60;99.90;;;;;;4838206;29;20852;-82
2022/09/11 18:16:45;;;;;;;6.05;1.98;;;13.50;99.90;;;;;;4868248;29;20049;-81
2022/09/11 18:19:16;;;;;;;2.53;1.95;;;13.40;99.90;;;;;;4877007;29;20056;-81
2022/09/11 18:21:45;;;;;;;2.05;1.85;;;13.30;99.90;;;;;;4854236;29;20056;-81
2022/09/11 18:24:19;;;;;;;2.47;2.28;;;13.20;99.90;;;;;;4849060;29;20045;-81
2022/09/11 18:26:52;;;;;;;1.92;1.83;;;13.10;99.90;;;;;;4877321;29;20045;-81
2022/09/11 18:29:25;;;;;;;2.30;2.10;;;12.90;99.90;;;;;;4876531;29;20059;-82
2022/09/11 18:32:26;;;;;;;2.30;2.10;;;12.80;99.90;;;;;;4876950;29;20057;-84
2022/09/11 18:34:57;;;;;;;3.38;2.35;;;12.80;99.90;;;;;;4864564;29;20484;-82
2022/09/11 18:37:27;;;;;;;5.37;2.43;;;12.90;99.90;;;;;;4879375;29;20060;-82
2022/09/11 18:39:56;;;;;;;2.60;2.22;;;12.90;99.90;;;;;;4865775;29;20057;-82
2022/09/11 18:42:24;;;;;;;3.42;3.17;;;12.90;99.90;;;;;;4864916;29;20399;-82
2022/09/11 18:44:52;;;;;;;2.15;1.95;;;12.90;99.90;;;;;;4879852;29;20045;-83
2022/09/11 18:47:23;;;;;;;2.67;2.47;;;12.90;99.90;;;;;;4864412;29;20682;-82
2022/09/11 18:49:51;;;;;;;2.97;2.72;;;12.90;99.90;;;;;;4861517;29;20046;-82
2022/09/11 18:52:23;;;;;;;2.70;2.53;;;12.90;99.90;;;;;;4861527;29;20525;-83
2022/09/11 18:54:54;;;;;;;;;;;12.90;99.90;;;;;;4838297;29;20050;-83
2022/09/11 18:58:13;;;;;;;3.15;2.80;;;12.90;99.90;;;;;;4856692;29;19934;-82
2022/09/11 19:01:25;;;;;;;2.63;2.42;;;12.80;99.90;;;;;;4828847;29;20508;-82
2022/09/11 19:13:07;;;;;;;8.13;3.00;;;12.70;99.90;;;;;;4864085;29;20041;-81
2022/09/11 19:15:36;;;;;;;4.82;2.13;;;12.80;99.90;;;;;;4880077;29;20053;-81
2022/09/11 19:18:04;;;;;;;4.68;3.10;;;12.80;99.90;;;;;;4833499;29;20049;-81
2022/09/11 19:20:32;;;;;;;3.42;2.30;;;12.80;99.90;;;;;;4848023;29;20041;-81
2022/09/11 19:23:02;;;;;;;3.53;2.83;;;12.70;99.90;;;;;;4848493;29;20407;-81
2022/09/11 19:25:33;;;;;;;2.20;2.08;;;12.70;99.90;;;;;;4854488;29;20049;-81
2022/09/11 19:28:03;;;;;;;9.85;2.75;;;12.60;99.90;;;;;;4844710;29;20068;-81
2022/09/11 19:30:31;;;;;;;4.43;2.65;;;12.60;99.90;;;;;;4880574;29;20056;-82
2022/09/11 19:32:59;;;;;;;2.67;2.47;;;12.50;99.90;;;;;;4859723;29;20057;-82
2022/09/11 19:35:27;;;;;;;4.15;2.33;;;12.50;99.90;;;;;;4830385;29;20061;-82
2022/09/11 19:37:56;;;;;;;2.38;2.05;;;12.50;99.90;;;;;;4855292;29;20042;-82
2022/09/11 19:40:36;;;;;;;2.78;2.58;;;12.40;99.90;;;;;;4833104;29;20053;-83
2022/09/11 19:43:05;;;;;;;3.30;2.72;;;12.30;99.90;;;;;;4877902;29;20048;-82
2022/09/11 19:45:34;;;;;;;3.47;3.17;;;12.30;99.90;;;;;;4880457;29;20048;-82
2022/09/11 19:48:02;;;;;;;2.25;2.05;;;12.30;99.90;;;;;;4880187;29;20653;-81
2022/09/11 19:50:34;;;;;;;4.75;4.35;;;12.30;99.90;;;;;;4880669;29;20059;-81
2022/09/11 19:53:02;;;;;;;2.42;2.22;;;12.30;99.90;;;;;;4879638;29;20060;-81
2022/09/11 19:55:34;;;;;;;2.83;2.63;;;12.20;99.90;;;;;;4860630;29;20060;-81
2022/09/11 19:58:03;;;;;;;3.60;3.10;;;12.20;99.90;;;;;;4847910;29;20045;-81
2022/09/11 20:00:34;;;;;;;4.40;2.97;;;12.20;99.90;;;;;;4862568;29;20041;-81
2022/09/11 20:03:02;;;;;;;3.65;3.35;;;12.30;99.90;;;;;;4848979;29;20049;-81
2022/09/11 20:05:30;;;;;;;9.23;4.28;;;12.30;99.90;;;;;;4884825;29;20602;-81
2022/09/11 20:07:58;;;;;;;3.60;3.15;;;12.30;99.90;;;;;;4860836;29;20086;-82
2022/09/11 20:10:31;;;;;;;3.40;3.10;;;12.30;99.90;;;;;;4862068;29;20496;-81
2022/09/11 20:12:59;;;;;;;3.25;2.75;;;12.30;99.90;;;;;;4879987;29;20064;-81
2022/09/11 20:15:27;;;;;;;3.05;2.75;;;12.30;99.90;;;;;;4880157;29;20071;-81
2022/09/11 20:17:55;;;;;;;3.08;2.80;;;12.20;99.90;;;;;;4879388;29;20527;-81
2022/09/11 20:20:24;;;;;;;4.00;3.42;;;12.10;99.90;;;;;;4848820;29;20048;-81
2022/09/11 20:22:53;;;;;;;2.50;2.30;;;12.00;99.90;;;;;;4835997;29;20045;-82
2022/09/11 20:25:22;;;;;;;4.53;2.80;;;12.00;99.90;;;;;;4852898;29;20046;-81
2022/09/11 20:27:50;;;;;;;2.47;2.28;;;12.00;99.90;;;;;;4844544;29;20061;-81
2022/09/11 20:30:18;;;;;;;2.60;2.40;;;11.90;99.90;;;;;;4876756;29;20049;-82
2022/09/11 20:32:46;;;;;;;3.10;2.78;;;11.90;99.90;;;;;;4859970;29;20041;-81
2022/09/11 20:35:15;;;;;;;2.67;2.45;;;11.80;99.90;;;;;;4878543;29;20057;-81
2022/09/11 20:37:43;;;;;;;3.63;2.30;;;11.80;99.90;;;;;;4861791;29;20597;-81
2022/09/11 20:40:15;;;;;;;3.30;3.00;;;11.90;99.90;;;;;;4860995;29;20056;-81
2022/09/11 20:42:44;;;;;;;6.85;3.03;;;12.00;99.90;;;;;;4852917;29;20052;-81
2022/09/11 20:45:12;;;;;;;2.92;2.42;;;12.00;99.90;;;;;;4863006;29;20057;-82
2022/09/11 20:47:40;;;;;;;3.65;2.92;;;12.10;99.90;;;;;;4862380;29;20041;-82
2022/09/11 20:50:08;;;;;;;3.50;2.55;;;12.10;99.90;;;;;;4862802;29;20049;-81
2022/09/11 20:52:36;;;;;;;4.05;2.67;;;12.10;99.90;;;;;;4878578;29;20069;-81
2022/09/11 20:55:06;;;;;;;3.10;2.60;;;12.10;99.90;;;;;;4860368;29;20052;-81
2022/09/11 20:57:34;;;;;;;2.13;1.98;;;12.20;99.90;;;;;;4854326;29;20058;-81
2022/09/11 21:00:04;;;;;;;2.42;2.22;;;12.20;99.90;;;;;;4862299;29;20053;-81
2022/09/11 21:02:33;;;;;;;3.30;2.88;;;12.20;99.90;;;;;;4875618;29;20426;-82
2022/09/11 21:05:03;;;;;;;5.50;3.10;;;12.20;99.90;;;;;;4859387;29;20045;-81
2022/09/11 21:07:31;;;;;;;3.17;2.25;;;12.10;99.90;;;;;;4858303;29;20044;-81
2022/09/11 21:10:35;;;;;;;2.80;2.40;;;12.10;99.90;;;;;;4878182;29;20048;-81
2022/09/11 21:13:03;;;;;;;2.75;2.33;;;12.00;99.90;;;;;;4841270;29;20428;-81
2022/09/11 21:15:31;;;;;;;2.92;2.63;;;11.90;99.90;;;;;;4878356;29;20690;-81
2022/09/11 21:17:58;;;;;;;3.13;2.63;;;11.90;99.90;;;;;;4870178;29;20053;-82
2022/09/11 21:20:26;;;;;;;2.60;2.40;;;11.80;99.90;;;;;;4872616;29;20408;-82
2022/09/11 21:22:56;;;;;;;3.25;2.50;;;11.80;99.90;;;;;;4858748;29;20530;-81
2022/09/11 21:25:23;;;;;;;6.10;2.72;;;11.70;99.90;;;;;;4871281;29;20395;-81
2022/09/11 21:27:51;;;;;;;2.58;2.38;;;11.70;99.90;;;;;;4857498;29;20054;-81
2022/09/11 21:30:19;;;;;;;5.45;2.55;;;11.60;99.90;;;;;;4877852;29;20403;-81
2022/09/11 21:32:47;;;;;;;2.70;2.38;;;11.60;99.90;;;;;;4853294;29;20049;-81
2022/09/11 21:35:15;;;;;;;2.90;2.22;;;11.60;99.90;;;;;;4875202;29;20057;-81
2022/09/11 21:37:43;;;;;;;2.60;2.40;;;11.50;99.90;;;;;;4856669;29;20049;-81
2022/09/11 21:40:12;;;;;;;1.67;1.58;;;11.40;99.90;;;;;;4861316;29;20057;-81
2022/09/11 21:42:40;;;;;;;1.95;1.75;;;11.30;99.90;;;;;;4878708;29;20053;-81
2022/09/11 21:45:08;;;;;;;2.05;1.95;;;11.20;99.90;;;;;;4861925;29;20051;-81
2022/09/11 21:47:36;;;;;;;2.30;2.10;;;11.00;99.90;;;;;;4846516;29;20559;-81
2022/09/11 21:50:05;;;;;;;1.95;1.75;;;10.90;99.90;;;;;;4855478;29;20385;-81
2022/09/11 21:52:33;;;;;;;1.58;1.48;;;10.90;99.90;;;;;;4845352;29;20056;-81
2022/09/11 21:55:01;;;;;;;10.85;3.45;;;10.90;99.90;;;;;;4867448;29;20045;-82
2022/09/11 21:57:29;;;;;;;13.32;3.38;;;10.90;99.90;;;;;;4873550;29;20412;-82
2022/09/11 21:59:58;;;;;;;5.63;3.53;;;10.90;99.90;;;;;;4877892;29;20052;-82
2022/09/11 22:02:25;;;;;;;7.35;3.63;;;10.90;99.90;;;;;;4872360;29;20056;-82
2022/09/11 22:04:53;;;;;;;2.38;2.17;;;10.90;99.90;;;;;;4876090;29;20052;-82
